SAS4166 ENZV-ENBR
Flight info
| Callsign | SAS4166 |
|---|---|
| Flight time | 0h 43m |
| Altitude | 16000 |
| Route | ALUVA |
| Aircraft | A321/M-SDE3FGHIRWY/LB1 |
Departure
| Time | 2026-04-27 17:29 |
|---|---|
| Airport | Stavanger Airport, Sola (ENZV) |
Arrival
| Time | 2026-04-27 18:12 |
|---|---|
| Airport | Bergen Airport, Flesland (ENBR) |
| Time | Latitude | Longitude | Altitude | Speed | Heading |
|---|---|---|---|---|---|
| 2026-04-27 17:20 | 58.88279 | 5.63104 | 27 ft | 0 kts | 254° |
| 2026-04-27 17:23 | 58.88284 | 5.63136 | 28 ft | 3 kts | 254° |
| 2026-04-27 17:23 | 58.88289 | 5.63168 | 28 ft | 2 kts | 254° |
| 2026-04-27 17:23 | 58.88290 | 5.63176 | 31 ft | 0 kts | 254° |
| 2026-04-27 17:24 | 58.88289 | 5.63171 | 31 ft | 0 kts | 254° |
| 2026-04-27 17:25 | 58.88277 | 5.63138 | 27 ft | 8 kts | 210° |
| 2026-04-27 17:25 | 58.88194 | 5.63182 | 25 ft | 14 kts | 175° |
| 2026-04-27 17:25 | 58.88102 | 5.63203 | 27 ft | 13 kts | 175° |
| 2026-04-27 17:26 | 58.88021 | 5.63261 | 29 ft | 13 kts | 149° |
| 2026-04-27 17:26 | 58.87950 | 5.63320 | 30 ft | 7 kts | 171° |
| 2026-04-27 17:26 | 58.87908 | 5.63322 | 31 ft | 2 kts | 185° |
| 2026-04-27 17:26 | 58.87893 | 5.63318 | 31 ft | 3 kts | 188° |
| 2026-04-27 17:27 | 58.87864 | 5.63310 | 31 ft | 8 kts | 188° |
| 2026-04-27 17:27 | 58.87777 | 5.63313 | 31 ft | 13 kts | 161° |
| 2026-04-27 17:27 | 58.87733 | 5.63454 | 32 ft | 13 kts | 107° |
| 2026-04-27 17:27 | 58.87709 | 5.63595 | 31 ft | 10 kts | 111° |
| 2026-04-27 17:28 | 58.87690 | 5.63722 | 33 ft | 10 kts | 85° |
| 2026-04-27 17:28 | 58.87719 | 5.63770 | 33 ft | 0 kts | 2° |
| 2026-04-27 17:28 | 58.88242 | 5.63761 | 32 ft | 109 kts | 360° |
| 2026-04-27 17:29 | 58.89208 | 5.63752 | 193 ft | 156 kts | 356° |
| 2026-04-27 17:29 | 58.90269 | 5.63805 | 1108 ft | 150 kts | 2° |
| 2026-04-27 17:29 | 58.91294 | 5.63972 | 1987 ft | 147 kts | 6° |
| 2026-04-27 17:29 | 58.92271 | 5.64100 | 2593 ft | 144 kts | 360° |
| 2026-04-27 17:30 | 58.93355 | 5.64004 | 2856 ft | 165 kts | 358° |
| 2026-04-27 17:30 | 58.95931 | 5.63754 | 3264 ft | 210 kts | 359° |
| 2026-04-27 17:30 | 58.97117 | 5.63666 | 3450 ft | 228 kts | 359° |
| 2026-04-27 17:31 | 58.98235 | 5.63588 | 3772 ft | 235 kts | 360° |
| 2026-04-27 17:31 | 58.98425 | 5.63575 | 3832 ft | 235 kts | 359° |
| 2026-04-27 17:31 | 59.00075 | 5.63457 | 4323 ft | 248 kts | 360° |
| 2026-04-27 17:32 | 59.01855 | 5.63196 | 4921 ft | 259 kts | 347° |
| 2026-04-27 17:32 | 59.04846 | 5.59276 | 6411 ft | 267 kts | 319° |
| 2026-04-27 17:32 | 59.06214 | 5.56814 | 7222 ft | 268 kts | 319° |
| 2026-04-27 17:33 | 59.07593 | 5.54317 | 7964 ft | 271 kts | 319° |
| 2026-04-27 17:33 | 59.08976 | 5.51814 | 8703 ft | 273 kts | 319° |
| 2026-04-27 17:33 | 59.10376 | 5.49288 | 9436 ft | 276 kts | 319° |
| 2026-04-27 17:33 | 59.11794 | 5.46728 | 10176 ft | 279 kts | 319° |
| 2026-04-27 17:34 | 59.13235 | 5.44132 | 10677 ft | 290 kts | 319° |
| 2026-04-27 17:34 | 59.14239 | 5.42328 | 10778 ft | 305 kts | 319° |
| 2026-04-27 17:34 | 59.15863 | 5.39405 | 10907 ft | 327 kts | 319° |
| 2026-04-27 17:34 | 59.17576 | 5.36309 | 11029 ft | 346 kts | 318° |
| 2026-04-27 17:35 | 59.19368 | 5.33058 | 11278 ft | 360 kts | 318° |
| 2026-04-27 17:35 | 59.21226 | 5.29684 | 11791 ft | 365 kts | 318° |
| 2026-04-27 17:35 | 59.23708 | 5.25172 | 12554 ft | 370 kts | 318° |
| 2026-04-27 17:35 | 59.25598 | 5.21729 | 13121 ft | 373 kts | 318° |
| 2026-04-27 17:36 | 59.26860 | 5.19427 | 13477 ft | 376 kts | 318° |
| 2026-04-27 17:36 | 59.28808 | 5.15869 | 14054 ft | 379 kts | 318° |
| 2026-04-27 17:36 | 59.30711 | 5.12385 | 14588 ft | 382 kts | 318° |
| 2026-04-27 17:36 | 59.32657 | 5.08812 | 15135 ft | 384 kts | 318° |
| 2026-04-27 17:37 | 59.34622 | 5.05203 | 15664 ft | 386 kts | 318° |
| 2026-04-27 17:37 | 59.36682 | 5.01834 | 16177 ft | 387 kts | 326° |
| 2026-04-27 17:37 | 59.38996 | 4.99126 | 16369 ft | 387 kts | 335° |
| 2026-04-27 17:37 | 59.41532 | 4.97193 | 16416 ft | 399 kts | 345° |
| 2026-04-27 17:38 | 59.44294 | 4.96097 | 16416 ft | 407 kts | 354° |
| 2026-04-27 17:38 | 59.47101 | 4.95640 | 16414 ft | 409 kts | 356° |
| 2026-04-27 17:38 | 59.49966 | 4.95188 | 16403 ft | 410 kts | 356° |
| 2026-04-27 17:38 | 59.52808 | 4.94731 | 16400 ft | 404 kts | 355° |
| 2026-04-27 17:39 | 59.55539 | 4.94281 | 16053 ft | 389 kts | 355° |
| 2026-04-27 17:39 | 59.58262 | 4.93829 | 14821 ft | 398 kts | 355° |
| 2026-04-27 17:39 | 59.61023 | 4.93370 | 14088 ft | 395 kts | 355° |
| 2026-04-27 17:39 | 59.63721 | 4.92435 | 13309 ft | 391 kts | 345° |
| 2026-04-27 17:40 | 59.66289 | 4.90805 | 12532 ft | 386 kts | 342° |
| 2026-04-27 17:40 | 59.68837 | 4.89169 | 11788 ft | 382 kts | 343° |
| 2026-04-27 17:40 | 59.71317 | 4.87610 | 11490 ft | 363 kts | 343° |
| 2026-04-27 17:40 | 59.73663 | 4.86145 | 11355 ft | 344 kts | 343° |
| 2026-04-27 17:41 | 59.75859 | 4.84776 | 11240 ft | 326 kts | 343° |
| 2026-04-27 17:41 | 59.77966 | 4.83453 | 11079 ft | 311 kts | 343° |
| 2026-04-27 17:41 | 59.79989 | 4.82175 | 10942 ft | 297 kts | 343° |
| 2026-04-27 17:41 | 59.81912 | 4.80955 | 10817 ft | 285 kts | 343° |
| 2026-04-27 17:42 | 59.83766 | 4.79776 | 10657 ft | 274 kts | 343° |
| 2026-04-27 17:42 | 59.85554 | 4.78633 | 10507 ft | 264 kts | 343° |
| 2026-04-27 17:42 | 59.87255 | 4.77545 | 10396 ft | 251 kts | 343° |
| 2026-04-27 17:42 | 59.88894 | 4.76497 | 10252 ft | 242 kts | 343° |
| 2026-04-27 17:43 | 59.90506 | 4.75467 | 10155 ft | 244 kts | 343° |
| 2026-04-27 17:43 | 59.92112 | 4.74555 | 10045 ft | 243 kts | 352° |
| 2026-04-27 17:43 | 59.93797 | 4.74587 | 9717 ft | 248 kts | 11° |
| 2026-04-27 17:43 | 59.95397 | 4.75883 | 9371 ft | 247 kts | 33° |
| 2026-04-27 17:44 | 59.96644 | 4.78133 | 9126 ft | 242 kts | 51° |
| 2026-04-27 17:44 | 59.97523 | 4.81010 | 8782 ft | 242 kts | 59° |
| 2026-04-27 17:44 | 59.98086 | 4.84148 | 8441 ft | 243 kts | 82° |
| 2026-04-27 17:44 | 59.97945 | 4.87469 | 8030 ft | 243 kts | 108° |
| 2026-04-27 17:45 | 59.97092 | 4.90371 | 7757 ft | 247 kts | 133° |
| 2026-04-27 17:45 | 59.95773 | 4.92629 | 7523 ft | 249 kts | 139° |
| 2026-04-27 17:45 | 59.94569 | 4.95076 | 7303 ft | 248 kts | 124° |
| 2026-04-27 17:45 | 59.93676 | 4.97992 | 7119 ft | 246 kts | 118° |
| 2026-04-27 17:46 | 59.92892 | 5.00940 | 6998 ft | 245 kts | 107° |
| 2026-04-27 17:46 | 59.92676 | 5.04258 | 6873 ft | 239 kts | 81° |
| 2026-04-27 17:46 | 59.93194 | 5.07347 | 6819 ft | 236 kts | 55° |
| 2026-04-27 17:46 | 59.94332 | 5.09680 | 6747 ft | 233 kts | 30° |
| 2026-04-27 17:47 | 59.95842 | 5.10829 | 6696 ft | 232 kts | 11° |
| 2026-04-27 17:47 | 59.96886 | 5.11268 | 6581 ft | 233 kts | 11° |
| 2026-04-27 17:47 | 59.98994 | 5.12168 | 6265 ft | 231 kts | 12° |
| 2026-04-27 17:47 | 60.00558 | 5.12842 | 6007 ft | 229 kts | 12° |
| 2026-04-27 17:48 | 60.02122 | 5.13518 | 5748 ft | 229 kts | 12° |
| 2026-04-27 17:48 | 60.03672 | 5.14187 | 5497 ft | 230 kts | 13° |
| 2026-04-27 17:48 | 60.05238 | 5.14867 | 5233 ft | 229 kts | 13° |
| 2026-04-27 17:48 | 60.06723 | 5.15895 | 4976 ft | 225 kts | 31° |
| 2026-04-27 17:49 | 60.07927 | 5.17859 | 4689 ft | 226 kts | 51° |
| 2026-04-27 17:49 | 60.08768 | 5.20513 | 4368 ft | 225 kts | 62° |
| 2026-04-27 17:49 | 60.09529 | 5.23238 | 4055 ft | 224 kts | 61° |
| 2026-04-27 17:49 | 60.10423 | 5.25797 | 3732 ft | 224 kts | 41° |
| 2026-04-27 17:50 | 60.11781 | 5.27229 | 3513 ft | 226 kts | 12° |
| 2026-04-27 17:50 | 60.14864 | 5.26666 | 2940 ft | 217 kts | 351° |
| 2026-04-27 17:50 | 60.16307 | 5.26171 | 2643 ft | 206 kts | 351° |
| 2026-04-27 17:51 | 60.17690 | 5.25708 | 2358 ft | 197 kts | 351° |
| 2026-04-27 17:51 | 60.18987 | 5.25276 | 2096 ft | 180 kts | 350° |
| 2026-04-27 17:51 | 60.20166 | 5.24883 | 1850 ft | 162 kts | 350° |
| 2026-04-27 17:51 | 60.21220 | 5.24532 | 1632 ft | 147 kts | 350° |
| 2026-04-27 17:52 | 60.22218 | 5.24199 | 1430 ft | 144 kts | 350° |
| 2026-04-27 17:52 | 60.23188 | 5.23875 | 1234 ft | 139 kts | 349° |
| 2026-04-27 17:52 | 60.24144 | 5.23555 | 1028 ft | 140 kts | 348° |
| 2026-04-27 17:52 | 60.25091 | 5.23238 | 840 ft | 138 kts | 349° |
| 2026-04-27 17:53 | 60.26051 | 5.22916 | 655 ft | 140 kts | 349° |
| 2026-04-27 17:53 | 60.26993 | 5.22601 | 463 ft | 137 kts | 349° |
| 2026-04-27 17:53 | 60.27965 | 5.22275 | 628 ft | 151 kts | 345° |
| 2026-04-27 17:53 | 60.28886 | 5.21216 | 1359 ft | 155 kts | 315° |
| 2026-04-27 17:54 | 60.29433 | 5.19217 | 1830 ft | 180 kts | 280° |
| 2026-04-27 17:54 | 60.29402 | 5.16589 | 2127 ft | 197 kts | 264° |
| 2026-04-27 17:54 | 60.29231 | 5.13722 | 2252 ft | 215 kts | 263° |
| 2026-04-27 17:54 | 60.29035 | 5.10675 | 2244 ft | 219 kts | 263° |
| 2026-04-27 17:55 | 60.28850 | 5.07842 | 2450 ft | 180 kts | 262° |
| 2026-04-27 17:55 | 60.28686 | 5.05330 | 2726 ft | 189 kts | 262° |
| 2026-04-27 17:55 | 60.28520 | 5.02581 | 2960 ft | 206 kts | 262° |
| 2026-04-27 17:55 | 60.28343 | 4.99568 | 3005 ft | 225 kts | 263° |
| 2026-04-27 17:56 | 60.28157 | 4.96408 | 3009 ft | 229 kts | 263° |
| 2026-04-27 17:56 | 60.27747 | 4.93338 | 3009 ft | 228 kts | 239° |
| 2026-04-27 17:56 | 60.26616 | 4.91168 | 3016 ft | 226 kts | 205° |
| 2026-04-27 17:56 | 60.25129 | 4.90156 | 3018 ft | 226 kts | 194° |
| 2026-04-27 17:57 | 60.23607 | 4.89387 | 3014 ft | 225 kts | 193° |
| 2026-04-27 17:57 | 60.22081 | 4.88645 | 3014 ft | 226 kts | 193° |
| 2026-04-27 17:57 | 60.20553 | 4.87906 | 3015 ft | 226 kts | 193° |
| 2026-04-27 17:57 | 60.19025 | 4.87164 | 3016 ft | 225 kts | 193° |
| 2026-04-27 17:58 | 60.17549 | 4.86439 | 3016 ft | 215 kts | 193° |
| 2026-04-27 17:58 | 60.16110 | 4.85738 | 3015 ft | 212 kts | 193° |
| 2026-04-27 17:58 | 60.14683 | 4.85075 | 3016 ft | 210 kts | 188° |
| 2026-04-27 17:58 | 60.13238 | 4.85064 | 3019 ft | 208 kts | 174° |
| 2026-04-27 17:59 | 60.11794 | 4.85356 | 3020 ft | 208 kts | 173° |
| 2026-04-27 17:59 | 60.10355 | 4.85681 | 3019 ft | 208 kts | 173° |
| 2026-04-27 17:59 | 60.08912 | 4.86021 | 3020 ft | 208 kts | 173° |
| 2026-04-27 17:59 | 60.07477 | 4.86361 | 3055 ft | 207 kts | 173° |
| 2026-04-27 18:00 | 60.06047 | 4.86692 | 3309 ft | 208 kts | 172° |
| 2026-04-27 18:00 | 60.04611 | 4.87018 | 3574 ft | 208 kts | 173° |
| 2026-04-27 18:00 | 60.03175 | 4.87336 | 3833 ft | 210 kts | 172° |
| 2026-04-27 18:00 | 60.01707 | 4.87649 | 3988 ft | 212 kts | 173° |
| 2026-04-27 18:01 | 60.00235 | 4.87957 | 4021 ft | 213 kts | 172° |
| 2026-04-27 18:01 | 59.98759 | 4.88261 | 4021 ft | 213 kts | 173° |
| 2026-04-27 18:01 | 59.97290 | 4.88560 | 4015 ft | 212 kts | 172° |
| 2026-04-27 18:01 | 59.95838 | 4.88858 | 4023 ft | 212 kts | 173° |
| 2026-04-27 18:02 | 59.94375 | 4.89175 | 4025 ft | 212 kts | 173° |
| 2026-04-27 18:02 | 59.92931 | 4.89689 | 4016 ft | 211 kts | 155° |
| 2026-04-27 18:02 | 59.91829 | 4.91539 | 4016 ft | 209 kts | 120° |
| 2026-04-27 18:02 | 59.91480 | 4.94284 | 4019 ft | 208 kts | 89° |
| 2026-04-27 18:03 | 59.91612 | 4.97162 | 4018 ft | 209 kts | 77° |
| 2026-04-27 18:03 | 59.92327 | 4.99672 | 4020 ft | 209 kts | 49° |
| 2026-04-27 18:03 | 59.93369 | 5.01682 | 4016 ft | 210 kts | 43° |
| 2026-04-27 18:03 | 59.94451 | 5.03629 | 4016 ft | 210 kts | 42° |
| 2026-04-27 18:04 | 59.95546 | 5.05587 | 4019 ft | 210 kts | 42° |
| 2026-04-27 18:04 | 59.96634 | 5.07525 | 4012 ft | 210 kts | 43° |
| 2026-04-27 18:04 | 59.97725 | 5.09463 | 4013 ft | 210 kts | 43° |
| 2026-04-27 18:04 | 59.98803 | 5.11393 | 4012 ft | 211 kts | 42° |
| 2026-04-27 18:05 | 59.99910 | 5.13374 | 4016 ft | 210 kts | 43° |
| 2026-04-27 18:05 | 60.00983 | 5.15286 | 4011 ft | 210 kts | 43° |
| 2026-04-27 18:05 | 60.02144 | 5.17022 | 4017 ft | 210 kts | 28° |
| 2026-04-27 18:05 | 60.03476 | 5.18236 | 3685 ft | 206 kts | 23° |
| 2026-04-27 18:06 | 60.04799 | 5.19300 | 3126 ft | 208 kts | 23° |
| 2026-04-27 18:06 | 60.06148 | 5.20367 | 3007 ft | 209 kts | 23° |
| 2026-04-27 18:06 | 60.07424 | 5.21379 | 3005 ft | 184 kts | 22° |
| 2026-04-27 18:06 | 60.08556 | 5.22289 | 3013 ft | 172 kts | 22° |
| 2026-04-27 18:07 | 60.09654 | 5.23169 | 3013 ft | 168 kts | 23° |
| 2026-04-27 18:07 | 60.10733 | 5.24030 | 3014 ft | 166 kts | 22° |
| 2026-04-27 18:07 | 60.11791 | 5.24881 | 3034 ft | 161 kts | 22° |
| 2026-04-27 18:07 | 60.12821 | 5.25714 | 3016 ft | 158 kts | 23° |
| 2026-04-27 18:08 | 60.13830 | 5.26518 | 3003 ft | 153 kts | 21° |
| 2026-04-27 18:08 | 60.14873 | 5.26654 | 2881 ft | 154 kts | 351° |
| 2026-04-27 18:08 | 60.15919 | 5.26300 | 2688 ft | 150 kts | 351° |
| 2026-04-27 18:08 | 60.16926 | 5.25963 | 2504 ft | 147 kts | 351° |
| 2026-04-27 18:09 | 60.17944 | 5.25624 | 2305 ft | 146 kts | 351° |
| 2026-04-27 18:09 | 60.18936 | 5.25293 | 2104 ft | 144 kts | 351° |
| 2026-04-27 18:09 | 60.19929 | 5.24963 | 1902 ft | 143 kts | 350° |
| 2026-04-27 18:09 | 60.20904 | 5.24637 | 1701 ft | 141 kts | 350° |
| 2026-04-27 18:10 | 60.21864 | 5.24317 | 1500 ft | 141 kts | 350° |
| 2026-04-27 18:10 | 60.22829 | 5.23994 | 1311 ft | 138 kts | 348° |
| 2026-04-27 18:10 | 60.23761 | 5.23683 | 1110 ft | 138 kts | 349° |
| 2026-04-27 18:10 | 60.24711 | 5.23365 | 915 ft | 137 kts | 349° |
| 2026-04-27 18:11 | 60.25658 | 5.23048 | 733 ft | 137 kts | 350° |
| 2026-04-27 18:11 | 60.26591 | 5.22735 | 543 ft | 136 kts | 349° |
| 2026-04-27 18:11 | 60.27516 | 5.22433 | 374 ft | 136 kts | 351° |
| 2026-04-27 18:11 | 60.28445 | 5.22131 | 213 ft | 134 kts | 351° |
| 2026-04-27 18:12 | 60.29291 | 5.21834 | 174 ft | 104 kts | 351° |
| 2026-04-27 18:12 | 60.29835 | 5.21654 | 175 ft | 55 kts | 352° |
| 2026-04-27 18:12 | 60.30023 | 5.21673 | 174 ft | 12 kts | 48° |
| 2026-04-27 18:12 | 60.30050 | 5.21761 | 171 ft | 3 kts | 57° |
| 2026-04-27 18:13 | 60.30045 | 5.21835 | 170 ft | 8 kts | 104° |
| 2026-04-27 18:13 | 60.29999 | 5.21913 | 168 ft | 10 kts | 156° |
| 2026-04-27 18:13 | 60.29963 | 5.21936 | 168 ft | 1 kts | 168° |
| 2026-04-27 18:13 | 60.29952 | 5.21941 | 168 ft | 3 kts | 168° |
| 2026-04-27 18:14 | 60.29932 | 5.21947 | 169 ft | 3 kts | 171° |
| 2026-04-27 18:14 | 60.29906 | 5.21956 | 169 ft | 5 kts | 171° |
| 2026-04-27 18:14 | 60.29862 | 5.21970 | 168 ft | 10 kts | 172° |
| 2026-04-27 18:14 | 60.29779 | 5.21994 | 169 ft | 13 kts | 172° |
| 2026-04-27 18:15 | 60.29690 | 5.22020 | 170 ft | 13 kts | 171° |
| 2026-04-27 18:15 | 60.29596 | 5.22053 | 171 ft | 13 kts | 170° |
| 2026-04-27 18:15 | 60.29517 | 5.22082 | 176 ft | 10 kts | 169° |
| 2026-04-27 18:15 | 60.29445 | 5.22109 | 176 ft | 11 kts | 169° |
| 2026-04-27 18:16 | 60.29360 | 5.22136 | 176 ft | 12 kts | 171° |
| 2026-04-27 18:16 | 60.29280 | 5.22162 | 179 ft | 11 kts | 168° |
| 2026-04-27 18:16 | 60.29198 | 5.22192 | 176 ft | 9 kts | 169° |
| 2026-04-27 18:16 | 60.29143 | 5.22212 | 175 ft | 1 kts | 169° |
| 2026-04-27 18:17 | 60.29127 | 5.22218 | 174 ft | 4 kts | 169° |
| 2026-04-27 18:17 | 60.29062 | 5.22242 | 174 ft | 14 kts | 170° |
| 2026-04-27 18:17 | 60.29002 | 5.22263 | 174 ft | 1 kts | 172° |
| 2026-04-27 18:17 | 60.28987 | 5.22269 | 174 ft | 5 kts | 167° |
| 2026-04-27 18:18 | 60.28954 | 5.22281 | 174 ft | 12 kts | 171° |
| 2026-04-27 18:18 | 60.28840 | 5.22338 | 174 ft | 13 kts | 142° |
| 2026-04-27 18:18 | 60.28773 | 5.22468 | 174 ft | 14 kts | 130° |
| 2026-04-27 18:18 | 60.28735 | 5.22650 | 174 ft | 15 kts | 97° |
| 2026-04-27 18:19 | 60.28747 | 5.22763 | 174 ft | 6 kts | 55° |
| 2026-04-27 18:19 | 60.28772 | 5.22844 | 174 ft | 6 kts | 70° |
| 2026-04-27 18:19 | 60.28775 | 5.22881 | 174 ft | 0 kts | 79° |